createdAt,value
2022-08-28T00:00:31.117Z,94.00
2022-08-28T00:02:59.069Z,94.20
2022-08-28T00:05:30.631Z,94.20
2022-08-28T00:07:59.151Z,94.40
2022-08-28T00:10:27.801Z,94.30
2022-08-28T00:12:56.653Z,94.60
2022-08-28T00:15:30.745Z,94.70
2022-08-28T00:17:59.205Z,94.80
2022-08-28T00:20:27.883Z,94.90
2022-08-28T00:22:55.938Z,95.00
2022-08-28T00:25:27.641Z,95.10
2022-08-28T00:32:43.438Z,95.50
2022-08-28T00:35:11.471Z,95.60
2022-08-28T00:37:40.338Z,95.50
2022-08-28T00:40:09.311Z,95.60
2022-08-28T00:42:38.514Z,95.80
2022-08-28T00:45:07.262Z,95.90
2022-08-28T00:47:35.204Z,96.00
2022-08-28T00:50:04.753Z,96.20
2022-08-28T00:52:32.352Z,96.30
2022-08-28T00:55:12.320Z,96.50
2022-08-28T00:57:49.428Z,96.70
2022-08-28T01:00:29.603Z,96.80
2022-08-28T01:02:57.715Z,97.10
2022-08-28T01:05:26.544Z,97.00
2022-08-28T01:07:55.432Z,97.20
2022-08-28T01:10:26.434Z,97.30
2022-08-28T01:12:56.399Z,97.50
2022-08-28T01:15:33.777Z,97.60
2022-08-28T01:18:08.483Z,97.80
2022-08-28T01:20:46.919Z,97.90
2022-08-28T01:23:38.453Z,98.00
2022-08-28T01:26:10.780Z,98.20
2022-08-28T01:28:39.975Z,98.30
2022-08-28T01:31:11.781Z,98.40
2022-08-28T01:34:50.191Z,98.60
2022-08-28T01:46:59.300Z,99.00
2022-08-28T01:49:29.459Z,98.90
2022-08-28T01:51:58.161Z,99.20
2022-08-28T01:54:26.709Z,99.30
2022-08-28T01:56:55.095Z,99.50
2022-08-28T01:59:22.824Z,99.60
2022-08-28T02:01:50.197Z,99.70
2022-08-28T02:04:17.525Z,99.80
2022-08-28T02:06:44.777Z,99.90
2022-08-28T02:09:14.598Z,99.90
2022-08-28T02:11:46.385Z,99.90
2022-08-28T02:14:15.139Z,99.90
2022-08-28T02:16:42.352Z,99.90
2022-08-28T02:19:09.682Z,99.90
2022-08-28T02:21:36.933Z,99.90
2022-08-28T02:24:05.050Z,99.90
2022-08-28T02:26:32.306Z,99.90
2022-08-28T02:29:00.189Z,99.90
2022-08-28T02:31:28.263Z,99.90
2022-08-28T02:33:56.161Z,99.90
2022-08-28T02:36:24.397Z,99.90
2022-08-28T02:38:57.440Z,99.90
2022-08-28T02:41:25.733Z,99.90
2022-08-28T02:43:53.487Z,99.90
2022-08-28T02:46:20.851Z,99.90
2022-08-28T02:48:48.203Z,99.90
2022-08-28T02:51:15.605Z,99.90
2022-08-28T02:53:43.436Z,99.90
2022-08-28T02:56:11.024Z,99.90
2022-08-28T02:58:39.836Z,99.90
2022-08-28T03:01:11.099Z,99.90
2022-08-28T03:03:40.888Z,99.90
2022-08-28T03:06:12.775Z,99.90
2022-08-28T03:08:44.761Z,99.90
2022-08-28T03:11:12.748Z,99.90
2022-08-28T03:13:40.085Z,99.90
2022-08-28T03:16:07.630Z,99.90
2022-08-28T03:18:35.304Z,99.90
2022-08-28T03:21:03.017Z,99.90
2022-08-28T03:23:31.597Z,99.90
2022-08-28T03:26:10.919Z,99.90
2022-08-28T03:28:46.550Z,99.90
2022-08-28T03:31:19.443Z,99.90
2022-08-28T03:33:48.328Z,99.90
2022-08-28T03:36:21.650Z,99.90
2022-08-28T03:38:50.337Z,99.90
2022-08-28T03:41:21.198Z,99.90
2022-08-28T03:43:48.376Z,99.90
2022-08-28T03:46:22.869Z,99.90
2022-08-28T03:48:51.789Z,99.90
2022-08-28T03:51:29.759Z,99.90
2022-08-28T03:53:59.982Z,99.90
2022-08-28T03:56:30.623Z,99.90
2022-08-28T03:59:01.242Z,99.90
2022-08-28T04:01:29.362Z,99.90
2022-08-28T04:03:57.282Z,99.90
2022-08-28T04:06:25.049Z,99.90
2022-08-28T04:08:52.355Z,99.90
2022-08-28T04:11:19.865Z,99.90
2022-08-28T04:13:47.118Z,99.90
2022-08-28T04:16:19.191Z,99.90
2022-08-28T04:18:49.179Z,99.90
2022-08-28T04:21:26.180Z,99.90
2022-08-28T04:23:56.043Z,99.90
2022-08-28T04:26:26.873Z,99.90
2022-08-28T04:28:56.302Z,99.90
2022-08-28T04:31:32.128Z,99.90
2022-08-28T04:34:06.317Z,99.90
2022-08-28T04:36:36.465Z,99.90
2022-08-28T04:39:08.686Z,99.90
2022-08-28T04:41:41.807Z,99.90
2022-08-28T04:44:10.132Z,99.90
2022-08-28T04:46:37.750Z,99.90
2022-08-28T04:49:06.087Z,99.90
2022-08-28T04:51:33.796Z,99.90
2022-08-28T04:54:03.718Z,99.90
2022-08-28T04:56:30.992Z,99.90
2022-08-28T04:58:58.312Z,99.90
2022-08-28T05:01:25.903Z,99.90
2022-08-28T05:04:00.835Z,99.90
2022-08-28T05:06:30.712Z,99.90
2022-08-28T05:09:01.283Z,99.90
2022-08-28T05:11:34.305Z,99.90
2022-08-28T05:14:15.907Z,99.90
2022-08-28T05:16:50.252Z,99.90
2022-08-28T05:19:19.501Z,99.90
2022-08-28T05:21:47.673Z,99.90
2022-08-28T05:24:15.189Z,99.90
2022-08-28T05:26:43.359Z,99.90
2022-08-28T05:29:11.429Z,99.90
2022-08-28T05:31:41.559Z,99.90
2022-08-28T05:34:10.520Z,99.90
2022-08-28T05:36:40.103Z,99.90
2022-08-28T05:39:11.007Z,99.90
2022-08-28T05:41:41.486Z,99.90
2022-08-28T05:44:13.745Z,99.90
2022-08-28T05:46:44.598Z,99.90
2022-08-28T05:49:13.663Z,99.90
2022-08-28T05:51:43.071Z,99.90
2022-08-28T05:54:11.517Z,99.90
2022-08-28T05:56:41.642Z,99.90
2022-08-28T05:59:11.735Z,99.90
2022-08-28T06:01:50.432Z,99.90
2022-08-28T06:04:27.315Z,99.90
2022-08-28T06:06:55.379Z,99.90
2022-08-28T06:09:29.317Z,99.90
2022-08-28T06:12:02.238Z,99.90
2022-08-28T06:14:30.432Z,99.90
2022-08-28T06:17:00.148Z,99.90
2022-08-28T06:19:30.735Z,99.90
2022-08-28T06:22:01.214Z,99.90
2022-08-28T06:24:34.539Z,99.90
2022-08-28T06:27:01.943Z,99.90
2022-08-28T06:29:29.380Z,99.90
2022-08-28T06:32:01.251Z,99.90
2022-08-28T06:34:31.447Z,99.90
2022-08-28T06:36:59.016Z,99.90
2022-08-28T06:39:26.410Z,99.90
2022-08-28T06:54:23.789Z,99.90
2022-08-28T06:56:52.904Z,99.90
2022-08-28T06:59:20.926Z,99.90
2022-08-28T07:01:55.655Z,99.90
2022-08-28T07:04:23.090Z,99.90
2022-08-28T07:06:54.136Z,99.90
2022-08-28T07:09:24.404Z,99.90
2022-08-28T07:11:52.648Z,99.90
2022-08-28T07:14:20.308Z,99.90
2022-08-28T07:16:47.880Z,99.90
2022-08-28T07:19:15.799Z,99.90
2022-08-28T07:21:46.205Z,99.90
2022-08-28T07:24:16.487Z,99.90
2022-08-28T07:26:46.428Z,99.90
2022-08-28T07:29:14.634Z,99.90
2022-08-28T07:31:47.058Z,99.90
2022-08-28T07:34:16.585Z,99.90
2022-08-28T07:36:44.969Z,99.90
2022-08-28T07:39:15.521Z,99.90
2022-08-28T07:41:43.314Z,99.90
2022-08-28T07:44:33.181Z,99.90
2022-08-28T07:47:05.977Z,99.90
2022-08-28T07:49:35.802Z,99.90
2022-08-28T07:52:07.340Z,99.90
2022-08-28T07:54:36.440Z,99.40
2022-08-28T07:57:10.051Z,98.80
2022-08-28T07:59:43.011Z,98.30
2022-08-28T08:02:10.920Z,98.10
2022-08-28T08:04:38.210Z,98.10
2022-08-28T08:07:06.554Z,98.00
2022-08-28T08:09:40.040Z,97.70
2022-08-28T08:12:10.387Z,97.40
2022-08-28T08:14:42.381Z,97.10
2022-08-28T08:17:11.003Z,96.80
2022-08-28T08:19:38.485Z,96.90
2022-08-28T08:22:06.423Z,96.60
2022-08-28T08:24:34.144Z,96.40
2022-08-28T08:27:03.145Z,96.00
2022-08-28T08:29:36.769Z,95.90
2022-08-28T08:32:09.573Z,95.70
2022-08-28T08:34:43.853Z,95.60
2022-08-28T08:37:13.457Z,95.80
2022-08-28T08:39:43.008Z,95.80
2022-08-28T08:42:30.280Z,95.70
2022-08-28T08:45:04.343Z,95.30
2022-08-28T08:47:47.669Z,95.20
2022-08-28T08:50:38.857Z,95.10
2022-08-28T08:53:32.136Z,95.30
2022-08-28T08:56:00.291Z,95.20
2022-08-28T08:58:40.003Z,95.30
2022-08-28T09:01:44.686Z,94.90
2022-08-28T09:04:50.694Z,94.20
2022-08-28T09:07:38.093Z,93.70
2022-08-28T09:10:15.856Z,93.40
2022-08-28T09:13:26.294Z,93.20
2022-08-28T09:15:53.623Z,92.50
2022-08-28T09:18:28.195Z,92.70
2022-08-28T09:20:59.610Z,92.30
2022-08-28T09:23:30.036Z,91.80
2022-08-28T09:25:59.757Z,91.40
2022-08-28T09:28:36.331Z,91.10
2022-08-28T09:31:08.771Z,90.30
2022-08-28T09:33:38.464Z,89.20
2022-08-28T09:36:32.031Z,88.00
2022-08-28T09:39:13.280Z,85.50
2022-08-28T09:42:41.737Z,83.00
2022-08-28T09:45:22.762Z,82.70
2022-08-28T09:47:58.999Z,81.30
2022-08-28T09:50:42.453Z,81.70
2022-08-28T09:53:10.257Z,81.30
2022-08-28T09:56:13.493Z,82.30
2022-08-28T09:58:59.640Z,80.90
2022-08-28T10:01:44.703Z,81.60
2022-08-28T10:04:33.933Z,83.00
2022-08-28T10:07:56.180Z,81.90
2022-08-28T10:11:00.538Z,80.90
2022-08-28T10:14:05.901Z,79.70
2022-08-28T10:16:54.085Z,78.90
2022-08-28T10:19:58.586Z,77.20
2022-08-28T10:22:56.882Z,76.90
2022-08-28T10:25:33.730Z,76.90
2022-08-28T10:28:39.404Z,76.50
2022-08-28T10:31:46.630Z,73.90
2022-08-28T10:34:34.649Z,74.50
2022-08-28T10:37:30.623Z,75.20
2022-08-28T10:40:16.776Z,74.10
2022-08-28T10:43:16.544Z,72.60
2022-08-28T10:45:44.261Z,72.20
2022-08-28T10:51:46.190Z,71.40
2022-08-28T10:54:38.423Z,70.60
2022-08-28T10:57:50.770Z,68.90
2022-08-28T11:00:27.989Z,68.70
2022-08-28T11:03:22.254Z,68.70
2022-08-28T11:06:16.821Z,68.20
2022-08-28T11:09:00.320Z,66.20
2022-08-28T11:11:49.185Z,66.10
2022-08-28T11:14:48.813Z,65.60
2022-08-28T11:17:22.567Z,66.00
2022-08-28T11:20:25.369Z,65.30
2022-08-28T11:23:24.187Z,65.50
2022-08-28T11:26:03.361Z,64.50
2022-08-28T11:28:36.805Z,63.80
2022-08-28T11:31:19.250Z,63.70
2022-08-28T11:34:01.525Z,63.40
2022-08-28T11:36:30.095Z,64.20
2022-08-28T11:38:57.949Z,64.20
2022-08-28T11:41:36.679Z,64.60
2022-08-28T11:44:10.070Z,64.20
2022-08-28T11:46:52.806Z,63.10
2022-08-28T11:49:35.112Z,63.00
2022-08-28T11:52:23.276Z,62.60
2022-08-28T11:55:31.120Z,62.20
2022-08-28T12:00:54.654Z,61.70
2022-08-28T12:04:07.441Z,61.60
2022-08-28T12:06:57.079Z,60.90
2022-08-28T12:10:05.183Z,60.40
2022-08-28T12:12:47.842Z,59.90
2022-08-28T12:15:33.802Z,59.90
2022-08-28T12:18:06.721Z,59.70
2022-08-28T12:21:02.976Z,60.70
2022-08-28T12:23:45.592Z,60.30
2022-08-28T12:26:40.146Z,60.00
2022-08-28T12:29:30.101Z,59.10
2022-08-28T12:32:16.404Z,58.90
2022-08-28T12:34:58.606Z,58.70
2022-08-28T12:37:53.049Z,58.30
2022-08-28T12:40:23.638Z,58.70
2022-08-28T12:42:57.216Z,58.10
2022-08-28T12:45:58.636Z,56.90
2022-08-28T12:48:31.615Z,56.40
2022-08-28T12:51:00.948Z,56.60
2022-08-28T12:53:54.790Z,56.40
2022-08-28T12:56:25.848Z,56.70
2022-08-28T12:58:56.483Z,56.90
2022-08-28T13:01:34.321Z,56.60
2022-08-28T13:04:30.633Z,56.50
2022-08-28T13:07:10.825Z,56.60
2022-08-28T13:09:48.046Z,56.60
2022-08-28T13:12:56.024Z,56.40
2022-08-28T13:16:06.067Z,55.80
2022-08-28T13:19:07.354Z,55.30
2022-08-28T13:22:02.111Z,54.80
2022-08-28T13:24:44.291Z,55.00
2022-08-28T13:27:14.565Z,55.40
2022-08-28T13:30:00.813Z,55.40
2022-08-28T13:32:39.564Z,55.60
2022-08-28T13:35:34.608Z,55.40
2022-08-28T13:38:07.703Z,54.90
2022-08-28T13:41:04.893Z,54.70
2022-08-28T13:43:46.538Z,54.50
2022-08-28T13:46:14.544Z,54.20
2022-08-28T13:48:41.936Z,54.40
2022-08-28T13:51:20.206Z,54.00
2022-08-28T13:53:49.794Z,53.80
2022-08-28T13:56:18.073Z,53.80
2022-08-28T13:58:56.763Z,53.70
2022-08-28T14:01:45.344Z,53.30
2022-08-28T14:04:13.559Z,53.30
2022-08-28T14:06:47.548Z,53.30
2022-08-28T14:09:17.819Z,53.20
2022-08-28T14:11:47.567Z,53.40
2022-08-28T14:14:14.918Z,53.40
2022-08-28T14:16:45.285Z,53.30
2022-08-28T14:19:13.581Z,53.00
2022-08-28T14:21:41.899Z,52.80
2022-08-28T14:24:09.953Z,52.70
2022-08-28T14:26:38.694Z,52.80
2022-08-28T14:29:10.784Z,52.80
2022-08-28T14:31:41.267Z,52.90
2022-08-28T14:34:14.095Z,53.00
2022-08-28T14:36:43.737Z,52.40
2022-08-28T14:39:15.643Z,52.50
2022-08-28T14:41:47.199Z,52.60
2022-08-28T14:44:16.136Z,52.90
2022-08-28T14:46:46.339Z,53.10
2022-08-28T14:49:17.481Z,53.30
2022-08-28T14:51:47.754Z,53.50
2022-08-28T14:54:19.589Z,53.60
2022-08-28T14:56:49.291Z,53.80
2022-08-28T14:59:31.990Z,53.80
2022-08-28T15:02:04.205Z,53.50
2022-08-28T15:04:35.511Z,53.20
2022-08-28T15:07:08.706Z,53.10
2022-08-28T15:09:40.192Z,53.10
2022-08-28T15:12:11.419Z,53.10
2022-08-28T15:14:38.759Z,53.20
2022-08-28T15:17:09.578Z,53.20
2022-08-28T15:19:36.792Z,53.40
2022-08-28T15:22:04.992Z,53.00
2022-08-28T15:24:34.697Z,53.20
2022-08-28T15:27:02.567Z,52.90
2022-08-28T15:29:30.411Z,53.00
2022-08-28T15:31:59.039Z,52.80
2022-08-28T15:34:28.940Z,52.90
2022-08-28T15:36:58.503Z,52.80
2022-08-28T15:39:47.591Z,52.40
2022-08-28T15:42:15.676Z,52.10
2022-08-28T15:44:44.821Z,51.60
2022-08-28T15:47:13.970Z,51.70
2022-08-28T15:49:46.137Z,51.80
2022-08-28T15:52:16.284Z,51.70
2022-08-28T15:54:43.740Z,51.60
2022-08-28T15:57:11.166Z,51.70
2022-08-28T15:59:48.603Z,51.30
2022-08-28T16:02:25.301Z,51.40
2022-08-28T16:04:54.088Z,51.60
2022-08-28T16:07:23.289Z,51.70
2022-08-28T16:09:51.391Z,51.60
2022-08-28T16:12:19.411Z,51.80
2022-08-28T16:14:46.939Z,51.70
2022-08-28T16:17:14.130Z,51.70
2022-08-28T16:19:43.034Z,51.60
2022-08-28T16:22:11.954Z,51.50
2022-08-28T16:24:39.288Z,51.60
2022-08-28T16:27:08.693Z,51.60
2022-08-28T16:29:39.702Z,51.50
2022-08-28T16:32:07.645Z,51.50
2022-08-28T16:34:36.916Z,51.70
2022-08-28T16:37:07.752Z,51.80
2022-08-28T16:39:36.607Z,51.60
2022-08-28T16:42:04.678Z,51.40
2022-08-28T16:44:32.028Z,51.50
2022-08-28T16:46:59.464Z,51.80
2022-08-28T16:49:27.122Z,52.10
2022-08-28T16:51:54.733Z,52.40
2022-08-28T16:54:22.262Z,52.60
2022-08-28T16:56:52.210Z,52.70
2022-08-28T16:59:23.517Z,52.70
2022-08-28T17:01:53.152Z,52.80
2022-08-28T17:04:22.520Z,53.00
2022-08-28T17:06:50.409Z,53.40
2022-08-28T17:09:20.907Z,53.60
2022-08-28T17:11:51.759Z,53.80
2022-08-28T17:14:21.531Z,54.00
2022-08-28T17:16:50.286Z,54.00
2022-08-28T17:19:18.513Z,54.00
2022-08-28T17:22:04.336Z,54.10
2022-08-28T17:24:31.582Z,54.10
2022-08-28T17:27:03.240Z,54.10
2022-08-28T17:29:34.033Z,54.20
2022-08-28T17:32:01.383Z,54.40
2022-08-28T17:34:30.467Z,54.40
2022-08-28T17:36:58.053Z,54.30
2022-08-28T17:39:25.708Z,54.40
2022-08-28T17:41:53.520Z,54.30
2022-08-28T17:44:20.907Z,54.40
2022-08-28T17:48:03.350Z,54.50
2022-08-28T17:50:33.603Z,54.70
2022-08-28T17:53:01.060Z,55.00
2022-08-28T17:55:28.772Z,55.30
2022-08-28T17:57:58.199Z,55.70
2022-08-28T18:00:25.545Z,56.20
2022-08-28T18:02:54.167Z,56.30
2022-08-28T18:05:22.292Z,56.60
2022-08-28T18:07:50.462Z,56.90
2022-08-28T18:10:18.385Z,57.20
2022-08-28T18:12:46.979Z,57.50
2022-08-28T18:15:15.057Z,57.70
2022-08-28T18:17:48.221Z,58.00
2022-08-28T18:20:15.494Z,58.20
2022-08-28T18:22:42.891Z,58.30
2022-08-28T18:25:30.560Z,58.60
2022-08-28T18:27:58.083Z,58.90
2022-08-28T18:30:25.563Z,59.10
2022-08-28T18:32:54.712Z,59.30
2022-08-28T18:35:31.705Z,59.50
2022-08-28T18:38:00.023Z,59.60
2022-08-28T18:40:28.346Z,59.70
2022-08-28T18:42:57.794Z,59.90
2022-08-28T18:45:25.727Z,60.00
2022-08-28T18:47:53.324Z,60.30
2022-08-28T18:50:23.750Z,60.50
2022-08-28T18:52:52.956Z,60.70
2022-08-28T18:55:26.248Z,61.00
2022-08-28T18:57:53.710Z,61.40
2022-08-28T19:00:24.802Z,61.50
2022-08-28T19:02:56.050Z,61.80
2022-08-28T19:05:24.096Z,62.20
2022-08-28T19:07:51.684Z,62.40
2022-08-28T19:10:32.869Z,62.70
2022-08-28T19:13:02.911Z,63.00
2022-08-28T19:15:32.712Z,63.30
2022-08-28T19:18:00.748Z,63.40
2022-08-28T19:20:29.857Z,63.50
2022-08-28T19:22:58.715Z,63.80
2022-08-28T19:25:30.814Z,64.10
2022-08-28T19:28:01.765Z,64.50
2022-08-28T19:30:33.609Z,64.70
2022-08-28T19:33:03.669Z,64.90
2022-08-28T19:35:31.080Z,65.20
2022-08-28T19:37:58.506Z,65.40
2022-08-28T19:40:26.079Z,65.80
2022-08-28T19:42:53.394Z,66.10
2022-08-28T19:45:21.348Z,66.50
2022-08-28T19:47:49.905Z,66.60
2022-08-28T19:50:17.470Z,67.20
2022-08-28T19:52:46.764Z,67.50
2022-08-28T19:55:21.336Z,67.90
2022-08-28T19:57:49.454Z,68.50
2022-08-28T20:00:26.160Z,68.70
2022-08-28T20:02:53.439Z,69.20
2022-08-28T20:05:21.962Z,69.40
2022-08-28T20:07:49.475Z,69.70
2022-08-28T20:10:18.213Z,70.00
2022-08-28T20:12:48.514Z,70.50
2022-08-28T20:15:22.757Z,70.90
2022-08-28T20:17:50.633Z,71.40
2022-08-28T20:20:25.666Z,71.50
2022-08-28T20:22:56.631Z,72.20
2022-08-28T20:25:24.388Z,72.20
2022-08-28T20:27:51.755Z,72.70
2022-08-28T20:30:19.220Z,73.30
2022-08-28T20:32:46.708Z,73.80
2022-08-28T20:35:15.667Z,74.10
2022-08-28T20:37:45.620Z,74.50
2022-08-28T20:40:19.543Z,75.10
2022-08-28T20:42:47.447Z,76.20
2022-08-28T20:45:16.958Z,76.10
2022-08-28T20:47:45.383Z,76.60
2022-08-28T20:50:14.641Z,77.20
2022-08-28T20:52:42.194Z,77.50
2022-08-28T20:55:10.882Z,77.90
2022-08-28T20:57:38.082Z,78.20
2022-08-28T21:00:09.484Z,78.60
2022-08-28T21:02:37.705Z,78.90
2022-08-28T21:05:05.959Z,79.40
2022-08-28T21:07:34.930Z,79.80
2022-08-28T21:10:07.767Z,80.10
2022-08-28T21:12:40.109Z,80.40
2022-08-28T21:15:11.331Z,80.90
2022-08-28T21:17:39.796Z,81.00
2022-08-28T21:20:14.742Z,81.40
2022-08-28T21:22:45.399Z,82.20
2022-08-28T21:25:13.740Z,82.20
2022-08-28T21:27:43.302Z,82.90
2022-08-28T21:30:14.391Z,83.40
2022-08-28T21:32:41.876Z,83.50
2022-08-28T21:35:12.152Z,83.80
2022-08-28T21:37:41.548Z,84.50
2022-08-28T21:40:13.165Z,85.00
2022-08-28T21:42:41.016Z,85.70
2022-08-28T21:45:11.989Z,85.90
2022-08-28T21:47:41.951Z,86.50
2022-08-28T21:50:10.951Z,86.90
2022-08-28T21:52:38.503Z,87.20
2022-08-28T21:55:11.846Z,87.80
2022-08-28T21:57:39.283Z,88.50
2022-08-28T22:00:17.459Z,88.80
2022-08-28T22:02:44.946Z,89.10
2022-08-28T22:05:12.754Z,89.40
2022-08-28T22:07:40.864Z,89.70
2022-08-28T22:10:09.766Z,89.80
2022-08-28T22:12:37.016Z,90.20
2022-08-28T22:15:05.342Z,90.40
2022-08-28T22:17:32.612Z,90.60
2022-08-28T22:19:59.729Z,90.70
2022-08-28T22:22:45.450Z,90.80
2022-08-28T22:25:12.597Z,91.10
2022-08-28T22:27:39.942Z,91.30
2022-08-28T22:30:08.029Z,91.50
2022-08-28T22:32:35.306Z,91.60
2022-08-28T22:35:02.660Z,91.80
2022-08-28T22:37:30.124Z,92.10
2022-08-28T22:39:58.331Z,92.20
2022-08-28T22:42:25.559Z,92.40
2022-08-28T22:44:52.901Z,92.60
2022-08-28T22:47:20.065Z,92.90
2022-08-28T22:49:47.511Z,93.10
2022-08-28T22:52:15.595Z,93.30
2022-08-28T22:54:43.478Z,93.40
2022-08-28T22:57:10.928Z,93.70
2022-08-28T22:59:38.233Z,93.80
2022-08-28T23:02:27.380Z,94.10
2022-08-28T23:04:55.234Z,94.80
2022-08-28T23:07:22.482Z,94.30
2022-08-28T23:09:49.798Z,94.50
2022-08-28T23:12:17.462Z,94.70
2022-08-28T23:14:48.361Z,94.90
2022-08-28T23:17:35.007Z,95.00
2022-08-28T23:20:04.819Z,95.70
2022-08-28T23:22:32.086Z,95.40
2022-08-28T23:24:59.520Z,95.70
2022-08-28T23:27:42.545Z,95.80
2022-08-28T23:30:10.782Z,96.20
2022-08-28T23:32:38.203Z,96.20
2022-08-28T23:35:08.146Z,96.40
2022-08-28T23:37:36.908Z,96.90
2022-08-28T23:40:11.032Z,96.70
2022-08-28T23:42:38.479Z,97.00
2022-08-28T23:45:07.113Z,96.90
2022-08-28T23:47:34.389Z,97.40
2022-08-28T23:50:11.979Z,97.60
2022-08-28T23:52:39.808Z,97.50
2022-08-28T23:55:07.750Z,97.70
2022-08-28T23:57:35.342Z,98.00
